createdAt,value
2022-10-13T00:00:18.126Z,21.84
2022-10-13T00:02:51.129Z,21.46
2022-10-13T00:05:21.826Z,21.98
2022-10-13T00:07:52.016Z,22.16
2022-10-13T00:10:22.851Z,21.94
2022-10-13T00:12:53.498Z,21.35
2022-10-13T00:15:27.154Z,21.12
2022-10-13T00:17:57.196Z,21.42
2022-10-13T00:20:27.170Z,21.49
2022-10-13T00:22:58.048Z,20.33
2022-10-13T00:25:28.302Z,20.49
2022-10-13T00:27:58.832Z,20.21
2022-10-13T00:30:39.260Z,19.82
2022-10-13T00:33:16.916Z,19.73
2022-10-13T00:35:50.583Z,20.44
2022-10-13T00:38:24.989Z,20.86
2022-10-13T00:40:57.635Z,20.72
2022-10-13T00:43:58.412Z,21.36
2022-10-13T00:46:32.326Z,21.34
2022-10-13T00:49:11.363Z,21.32
2022-10-13T00:51:53.671Z,21.23
2022-10-13T00:54:26.525Z,21.75
2022-10-13T00:56:57.266Z,21.54
2022-10-13T00:59:30.386Z,20.75
2022-10-13T01:02:02.446Z,20.72
2022-10-13T01:04:38.485Z,21.18
2022-10-13T01:07:10.150Z,20.93
2022-10-13T01:09:40.803Z,21.02
2022-10-13T01:12:12.965Z,21.43
2022-10-13T01:14:54.074Z,21.15
2022-10-13T01:17:30.372Z,20.96
2022-10-13T01:20:19.267Z,21.48
2022-10-13T01:23:19.899Z,21.45
2022-10-13T01:26:24.190Z,21.23
2022-10-13T01:29:09.530Z,21.26
2022-10-13T01:31:59.350Z,21.43
2022-10-13T01:34:49.131Z,21.22
2022-10-13T01:37:54.242Z,20.89
2022-10-13T01:40:30.554Z,21.48
2022-10-13T01:43:33.109Z,21.19
2022-10-13T01:46:15.786Z,21.27
2022-10-13T01:48:47.481Z,21.49
2022-10-13T01:51:21.455Z,21.43
2022-10-13T01:53:55.535Z,21.17
2022-10-13T01:56:26.251Z,21.07
2022-10-13T01:59:04.840Z,21.62
2022-10-13T02:02:17.844Z,21.48
2022-10-13T02:04:58.562Z,21.26
2022-10-13T02:07:43.787Z,21.36
2022-10-13T02:10:28.887Z,21.66
2022-10-13T02:13:05.529Z,21.40
2022-10-13T02:15:39.026Z,21.80
2022-10-13T02:18:14.096Z,22.14
2022-10-13T02:20:47.952Z,22.06
2022-10-13T02:23:19.561Z,21.85
2022-10-13T02:25:52.039Z,22.35
2022-10-13T02:28:24.328Z,21.49
2022-10-13T02:30:55.032Z,21.42
2022-10-13T02:33:25.128Z,20.61
2022-10-13T02:35:54.937Z,20.14
2022-10-13T02:38:25.362Z,19.69
2022-10-13T02:40:56.095Z,19.71
2022-10-13T02:43:27.003Z,20.37
2022-10-13T02:45:57.045Z,21.10
2022-10-13T02:48:27.034Z,21.23
2022-10-13T02:50:56.799Z,21.13
2022-10-13T02:53:26.779Z,21.38
2022-10-13T02:55:58.247Z,21.63
2022-10-13T02:58:29.742Z,21.60
2022-10-13T03:01:10.213Z,21.43
2022-10-13T03:03:40.790Z,21.99
2022-10-13T03:06:11.275Z,21.82
2022-10-13T03:08:41.343Z,21.67
2022-10-13T03:11:11.721Z,21.87
2022-10-13T03:13:41.769Z,21.86
2022-10-13T03:16:12.141Z,21.92
2022-10-13T03:18:41.925Z,20.86
2022-10-13T03:21:12.275Z,21.02
2022-10-13T03:23:42.079Z,20.61
2022-10-13T03:26:11.810Z,20.27
2022-10-13T03:28:42.408Z,20.97
2022-10-13T03:31:13.881Z,21.46
2022-10-13T03:33:44.298Z,21.55
2022-10-13T03:36:15.027Z,21.45
2022-10-13T03:38:47.961Z,21.54
2022-10-13T03:41:20.206Z,21.56
2022-10-13T03:43:52.531Z,21.71
2022-10-13T03:46:30.488Z,21.41
2022-10-13T03:49:01.226Z,21.84
2022-10-13T03:51:32.515Z,21.81
2022-10-13T03:54:02.884Z,21.28
2022-10-13T03:56:33.119Z,20.62
2022-10-13T03:59:06.138Z,20.98
2022-10-13T04:01:36.224Z,20.50
2022-10-13T04:04:06.239Z,20.54
2022-10-13T04:06:36.639Z,20.13
2022-10-13T04:09:07.777Z,20.80
2022-10-13T04:11:41.051Z,19.82
2022-10-13T04:14:13.957Z,20.41
2022-10-13T04:16:44.329Z,21.07
2022-10-13T04:19:15.968Z,21.53
2022-10-13T04:21:46.458Z,21.50
2022-10-13T04:24:18.744Z,21.32
2022-10-13T04:26:49.128Z,21.85
2022-10-13T04:29:18.907Z,21.90
2022-10-13T04:31:51.428Z,21.64
2022-10-13T04:34:21.903Z,21.38
2022-10-13T04:36:52.988Z,22.01
2022-10-13T04:39:23.205Z,21.94
2022-10-13T04:41:53.669Z,21.80
2022-10-13T04:44:23.832Z,21.63
2022-10-13T04:46:54.259Z,22.20
2022-10-13T04:49:24.251Z,21.78
2022-10-13T04:51:54.571Z,21.69
2022-10-13T04:54:24.576Z,22.03
2022-10-13T04:56:55.035Z,21.73
2022-10-13T04:59:24.833Z,21.59
2022-10-13T05:01:58.559Z,21.40
2022-10-13T05:04:29.501Z,22.15
2022-10-13T05:07:16.947Z,21.78
2022-10-13T05:09:48.345Z,21.64
2022-10-13T05:12:19.175Z,21.80
2022-10-13T05:14:49.736Z,21.94
2022-10-13T05:17:20.071Z,20.77
2022-10-13T05:19:50.962Z,21.16
2022-10-13T05:22:22.781Z,21.81
2022-10-13T05:24:53.058Z,21.89
2022-10-13T05:27:24.306Z,21.54
2022-10-13T05:29:54.404Z,21.39
2022-10-13T05:32:24.996Z,22.07
2022-10-13T05:34:54.766Z,21.88
2022-10-13T05:37:25.173Z,21.52
2022-10-13T05:39:55.030Z,21.30
2022-10-13T05:42:25.550Z,21.75
2022-10-13T05:44:55.540Z,21.56
2022-10-13T05:47:29.245Z,21.36
2022-10-13T05:49:59.386Z,21.70
2022-10-13T05:52:33.320Z,21.69
2022-10-13T05:55:06.629Z,21.47
2022-10-13T05:57:42.254Z,21.43
2022-10-13T06:00:17.348Z,21.69
2022-10-13T06:02:56.562Z,20.50
2022-10-13T06:05:28.887Z,20.35
2022-10-13T06:07:59.341Z,19.49
2022-10-13T06:10:29.811Z,19.98
2022-10-13T06:13:00.208Z,19.29
2022-10-13T06:15:30.228Z,18.69
2022-10-13T06:18:01.255Z,18.76
2022-10-13T06:20:31.291Z,19.49
2022-10-13T06:23:01.690Z,20.16
2022-10-13T06:25:33.909Z,20.14
2022-10-13T06:28:04.368Z,20.19
2022-10-13T06:30:34.289Z,20.65
2022-10-13T06:33:04.175Z,20.36
2022-10-13T06:35:35.506Z,20.62
2022-10-13T06:38:11.158Z,20.03
2022-10-13T06:40:44.140Z,20.14
2022-10-13T06:43:14.610Z,20.51
2022-10-13T06:45:44.608Z,19.70
2022-10-13T06:48:14.964Z,19.92
2022-10-13T06:50:44.925Z,20.59
2022-10-13T06:53:14.791Z,20.70
2022-10-13T06:55:47.046Z,20.66
2022-10-13T06:58:19.459Z,20.48
2022-10-13T07:00:49.538Z,21.10
2022-10-13T07:03:19.972Z,21.00
2022-10-13T07:05:50.080Z,20.87
2022-10-13T07:08:20.798Z,20.89
2022-10-13T07:10:50.263Z,21.33
2022-10-13T07:15:55.330Z,20.83
2022-10-13T07:18:25.705Z,20.85
2022-10-13T07:20:55.690Z,21.48
2022-10-13T07:23:26.502Z,21.36
2022-10-13T07:25:58.447Z,21.30
2022-10-13T07:28:31.983Z,21.15
2022-10-13T07:31:01.965Z,21.53
2022-10-13T07:33:32.348Z,21.28
2022-10-13T07:36:02.348Z,20.94
2022-10-13T07:38:32.727Z,20.96
2022-10-13T07:41:04.512Z,21.12
2022-10-13T07:43:35.307Z,20.69
2022-10-13T07:46:08.812Z,19.91
2022-10-13T07:48:39.146Z,20.91
2022-10-13T07:51:12.547Z,20.98
2022-10-13T07:53:44.078Z,20.86
2022-10-13T07:56:15.481Z,20.64
2022-10-13T07:58:48.560Z,21.41
2022-10-13T08:01:19.384Z,21.22
2022-10-13T08:03:50.860Z,20.91
2022-10-13T08:06:24.517Z,21.20
2022-10-13T08:08:58.793Z,21.58
2022-10-13T08:11:29.414Z,21.35
2022-10-13T08:14:02.831Z,20.96
2022-10-13T08:16:34.801Z,21.44
2022-10-13T08:19:05.216Z,21.36
2022-10-13T08:24:26.032Z,20.95
2022-10-13T08:26:57.102Z,20.83
2022-10-13T08:29:27.564Z,20.20
2022-10-13T08:31:57.955Z,20.16
2022-10-13T08:34:28.416Z,19.27
2022-10-13T08:36:58.818Z,20.17
2022-10-13T08:39:29.644Z,20.33
2022-10-13T08:42:00.154Z,20.18
2022-10-13T08:45:16.035Z,20.41
2022-10-13T08:48:10.591Z,20.69
2022-10-13T08:50:44.474Z,20.61
2022-10-13T08:53:24.568Z,20.40
2022-10-13T08:56:04.394Z,20.76
2022-10-13T08:58:40.746Z,20.72
2022-10-13T09:01:15.533Z,20.13
2022-10-13T09:04:22.357Z,19.70
2022-10-13T09:07:15.821Z,20.61
2022-10-13T09:09:45.874Z,20.64
2022-10-13T09:12:17.160Z,20.59
2022-10-13T09:15:08.569Z,20.73
2022-10-13T09:17:41.784Z,21.06
2022-10-13T09:20:28.902Z,20.87
2022-10-13T09:23:21.799Z,20.71
2022-10-13T09:25:53.722Z,21.43
2022-10-13T09:28:34.020Z,21.50
2022-10-13T09:31:11.697Z,21.28
2022-10-13T09:33:45.123Z,21.46
2022-10-13T09:36:18.897Z,22.16
2022-10-13T09:39:14.819Z,21.86
2022-10-13T09:41:47.212Z,21.53
2022-10-13T09:44:35.623Z,22.14
2022-10-13T09:47:06.352Z,22.12
2022-10-13T09:49:42.977Z,22.01
2022-10-13T09:52:16.190Z,20.61
2022-10-13T09:54:51.216Z,21.22
2022-10-13T09:57:43.419Z,20.85
2022-10-13T10:00:23.812Z,19.85
2022-10-13T10:03:16.934Z,21.06
2022-10-13T10:06:01.106Z,20.71
2022-10-13T10:09:03.852Z,19.88
2022-10-13T10:12:02.264Z,21.36
2022-10-13T10:20:13.625Z,21.48
2022-10-13T10:23:04.830Z,22.39
2022-10-13T10:25:46.684Z,22.66
2022-10-13T10:28:41.218Z,22.81
2022-10-13T10:31:34.138Z,23.40
2022-10-13T10:34:36.865Z,23.22
2022-10-13T10:37:46.761Z,23.58
2022-10-13T10:40:24.180Z,24.33
2022-10-13T10:42:59.998Z,23.70
2022-10-13T10:45:39.277Z,23.65
2022-10-13T10:48:22.726Z,24.05
2022-10-13T10:50:54.937Z,23.29
2022-10-13T10:53:55.742Z,23.50
2022-10-13T10:56:40.527Z,24.36
2022-10-13T10:59:28.125Z,24.47
2022-10-13T11:02:10.154Z,23.51
2022-10-13T11:04:42.558Z,24.58
2022-10-13T11:07:36.422Z,25.05
2022-10-13T11:10:19.525Z,24.93
2022-10-13T11:12:56.426Z,24.58
2022-10-13T11:15:48.207Z,25.06
2022-10-13T11:18:55.062Z,25.78
2022-10-13T11:21:55.792Z,26.36
2022-10-13T11:24:44.205Z,27.12
2022-10-13T11:27:18.103Z,26.81
2022-10-13T11:29:48.359Z,26.82
2022-10-13T11:32:28.284Z,27.68
2022-10-13T11:35:15.699Z,27.54
2022-10-13T11:38:07.633Z,28.64
2022-10-13T11:40:41.676Z,29.61
2022-10-13T11:43:30.739Z,30.28
2022-10-13T11:46:09.779Z,30.41
2022-10-13T11:49:17.241Z,30.46
2022-10-13T11:51:53.329Z,30.36
2022-10-13T11:54:36.147Z,29.32
2022-10-13T11:57:21.158Z,28.55
2022-10-13T11:59:57.016Z,28.53
2022-10-13T12:02:31.921Z,29.70
2022-10-13T12:05:21.837Z,30.66
2022-10-13T12:07:53.855Z,30.59
2022-10-13T12:10:32.478Z,30.72
2022-10-13T12:13:03.506Z,30.70
2022-10-13T12:15:38.891Z,30.94
2022-10-13T12:18:42.407Z,31.76
2022-10-13T12:21:14.483Z,30.87
2022-10-13T12:23:44.764Z,31.02
2022-10-13T12:26:26.914Z,30.93
2022-10-13T12:28:58.601Z,31.70
2022-10-13T12:31:32.353Z,32.08
2022-10-13T12:34:03.961Z,31.82
2022-10-13T12:36:36.990Z,31.90
2022-10-13T12:39:13.491Z,32.24
2022-10-13T12:41:47.198Z,33.39
2022-10-13T12:44:22.280Z,33.91
2022-10-13T12:46:57.270Z,34.45
2022-10-13T12:49:38.402Z,33.79
2022-10-13T12:52:11.706Z,33.91
2022-10-13T12:54:50.266Z,33.30
2022-10-13T12:57:39.915Z,33.60
2022-10-13T13:00:25.185Z,34.19
2022-10-13T13:02:55.660Z,35.33
2022-10-13T13:05:38.076Z,36.06
2022-10-13T13:08:28.300Z,36.18
2022-10-13T13:11:01.083Z,35.33
2022-10-13T13:13:34.630Z,36.37
2022-10-13T13:16:21.410Z,36.57
2022-10-13T13:18:53.063Z,36.59
2022-10-13T13:21:23.536Z,37.10
2022-10-13T13:23:54.280Z,37.12
2022-10-13T13:26:25.791Z,37.79
2022-10-13T13:28:58.090Z,38.24
2022-10-13T13:31:28.097Z,38.62
2022-10-13T13:33:58.235Z,38.82
2022-10-13T13:36:29.302Z,38.83
2022-10-13T13:38:59.277Z,37.51
2022-10-13T13:41:32.157Z,37.86
2022-10-13T13:44:02.329Z,37.91
2022-10-13T13:46:34.190Z,38.35
2022-10-13T13:49:04.623Z,39.25
2022-10-13T13:51:35.327Z,39.30
2022-10-13T13:55:00.495Z,39.71
2022-10-13T13:57:49.207Z,39.92
2022-10-13T14:00:20.336Z,39.64
2022-10-13T14:02:58.587Z,39.21
2022-10-13T14:05:29.005Z,39.58
2022-10-13T14:08:00.152Z,39.25
2022-10-13T14:10:31.515Z,39.69
2022-10-13T14:13:01.755Z,39.85
2022-10-13T14:15:32.316Z,38.77
2022-10-13T14:18:02.470Z,37.53
2022-10-13T14:20:32.861Z,39.30
2022-10-13T14:23:02.850Z,40.00
2022-10-13T14:25:34.450Z,39.84
2022-10-13T14:28:04.397Z,40.49
2022-10-13T14:30:35.040Z,40.28
2022-10-13T14:33:06.087Z,40.05
2022-10-13T14:35:39.928Z,40.10
2022-10-13T14:38:12.389Z,39.41
2022-10-13T14:40:47.152Z,40.27
2022-10-13T14:43:17.065Z,39.90
2022-10-13T14:45:46.822Z,38.40
2022-10-13T14:48:22.619Z,37.70
2022-10-13T14:50:54.603Z,38.27
2022-10-13T14:53:27.636Z,37.43
2022-10-13T14:55:57.654Z,36.80
2022-10-13T14:58:30.525Z,37.52
2022-10-13T15:01:00.526Z,37.20
2022-10-13T15:03:30.903Z,36.89
2022-10-13T15:06:01.131Z,36.89
2022-10-13T15:09:00.435Z,37.22
2022-10-13T15:11:30.616Z,36.76
2022-10-13T15:14:01.817Z,36.68
2022-10-13T15:16:38.119Z,37.02
2022-10-13T15:19:08.483Z,37.03
2022-10-13T15:21:38.510Z,36.88
2022-10-13T15:24:10.254Z,37.43
2022-10-13T15:26:40.276Z,37.74
2022-10-13T15:29:10.672Z,37.23
2022-10-13T15:31:40.611Z,36.75
2022-10-13T15:34:11.091Z,35.92
2022-10-13T15:36:43.671Z,35.90
2022-10-13T15:39:14.018Z,36.25
2022-10-13T15:41:43.779Z,36.34
2022-10-13T15:44:14.191Z,36.89
2022-10-13T15:47:05.457Z,37.27
2022-10-13T15:49:40.527Z,37.78
2022-10-13T15:52:10.722Z,37.60
2022-10-13T15:54:44.222Z,37.42
2022-10-13T15:57:14.254Z,38.03
2022-10-13T15:59:44.697Z,38.88
2022-10-13T16:02:14.700Z,38.84
2022-10-13T16:04:45.260Z,37.84
2022-10-13T16:07:15.275Z,37.87
2022-10-13T16:09:46.153Z,37.43
2022-10-13T16:12:16.272Z,37.63
2022-10-13T16:14:46.640Z,37.87
2022-10-13T16:17:16.649Z,38.31
2022-10-13T16:19:47.082Z,39.54
2022-10-13T16:22:16.974Z,40.25
2022-10-13T16:24:47.331Z,40.53
2022-10-13T16:27:17.359Z,39.34
2022-10-13T16:29:47.779Z,39.94
2022-10-13T16:32:18.118Z,39.52
2022-10-13T16:34:49.567Z,39.02
2022-10-13T16:37:21.867Z,38.90
2022-10-13T16:39:52.442Z,39.15
2022-10-13T16:42:22.509Z,39.65
2022-10-13T16:44:53.003Z,39.40
2022-10-13T16:47:23.308Z,39.10
2022-10-13T16:49:54.065Z,39.42
2022-10-13T16:52:24.040Z,40.41
2022-10-13T16:54:54.717Z,40.29
2022-10-13T16:57:26.730Z,40.92
2022-10-13T16:59:59.714Z,40.70
2022-10-13T17:02:31.615Z,41.24
2022-10-13T17:05:01.586Z,41.50
2022-10-13T17:07:32.067Z,40.84
2022-10-13T17:10:04.330Z,40.02
2022-10-13T17:12:35.848Z,38.82
2022-10-13T17:15:06.322Z,38.83
2022-10-13T17:17:36.921Z,39.61
2022-10-13T17:20:07.382Z,40.43
2022-10-13T17:22:41.799Z,40.98
2022-10-13T17:25:12.168Z,42.03
2022-10-13T17:27:43.464Z,41.41
2022-10-13T17:30:13.717Z,40.54
2022-10-13T17:32:44.159Z,40.15
2022-10-13T17:35:19.054Z,40.54
2022-10-13T17:37:51.545Z,40.49
2022-10-13T17:40:21.891Z,41.11
2022-10-13T17:42:52.402Z,40.93
2022-10-13T17:45:22.582Z,40.05
2022-10-13T17:47:55.319Z,40.36
2022-10-13T17:50:28.743Z,41.07
2022-10-13T17:52:59.733Z,41.53
2022-10-13T17:55:31.482Z,41.82
2022-10-13T17:58:02.235Z,41.21
2022-10-13T18:00:43.840Z,41.22
2022-10-13T18:03:23.082Z,41.86
2022-10-13T18:05:54.691Z,41.28
2022-10-13T18:08:25.130Z,42.06
2022-10-13T18:11:07.610Z,42.16
2022-10-13T18:13:39.295Z,41.38
2022-10-13T18:16:12.724Z,40.69
2022-10-13T18:18:47.058Z,40.99
2022-10-13T18:21:19.073Z,41.01
2022-10-13T18:23:58.417Z,41.24
2022-10-13T18:26:29.935Z,41.94
2022-10-13T18:29:00.558Z,42.26
2022-10-13T18:31:32.856Z,41.18
2022-10-13T18:34:06.954Z,40.79
2022-10-13T18:36:39.292Z,40.76
2022-10-13T18:39:19.827Z,41.28
2022-10-13T18:41:51.459Z,41.04
2022-10-13T18:44:22.920Z,41.87
2022-10-13T18:46:54.955Z,42.15
2022-10-13T18:49:31.968Z,39.43
2022-10-13T18:52:03.347Z,35.52
2022-10-13T18:54:33.946Z,33.18
2022-10-13T18:57:03.914Z,31.60
2022-10-13T18:59:39.665Z,31.06
2022-10-13T19:02:12.175Z,30.97
2022-10-13T19:04:42.735Z,31.40
2022-10-13T19:07:12.697Z,32.07
2022-10-13T19:09:43.210Z,31.01
2022-10-13T19:12:12.965Z,30.82
2022-10-13T19:14:43.423Z,31.96
2022-10-13T19:17:16.276Z,31.91
2022-10-13T19:19:47.430Z,31.97
2022-10-13T19:22:17.468Z,31.08
2022-10-13T19:24:48.054Z,30.60
2022-10-13T19:27:18.660Z,30.57
2022-10-13T19:29:52.931Z,30.19
2022-10-13T19:32:23.029Z,30.21
2022-10-13T19:34:53.646Z,30.57
2022-10-13T19:37:24.367Z,30.89
2022-10-13T19:39:54.873Z,30.70
2022-10-13T19:42:24.925Z,29.77
2022-10-13T19:44:55.370Z,30.02
2022-10-13T19:47:25.498Z,29.85
2022-10-13T19:49:56.040Z,29.67
2022-10-13T19:52:28.639Z,29.35
2022-10-13T19:54:59.762Z,29.43
2022-10-13T19:57:29.755Z,29.73
2022-10-13T20:00:00.223Z,29.95
2022-10-13T20:02:29.983Z,30.67
2022-10-13T20:05:00.749Z,30.54
2022-10-13T20:07:30.955Z,30.31
2022-10-13T20:10:08.038Z,30.14
2022-10-13T20:12:40.453Z,29.87
2022-10-13T20:15:12.354Z,29.30
2022-10-13T20:17:42.411Z,28.78
2022-10-13T20:20:13.246Z,28.51
2022-10-13T20:22:43.196Z,28.34
2022-10-13T20:25:15.908Z,27.99
2022-10-13T20:27:46.365Z,27.70
2022-10-13T20:30:16.487Z,27.82
2022-10-13T20:32:46.925Z,27.81
2022-10-13T20:35:17.022Z,28.24
2022-10-13T20:37:47.434Z,28.97
2022-10-13T20:40:17.579Z,28.94
2022-10-13T20:42:53.004Z,28.49
2022-10-13T20:45:23.216Z,27.88
2022-10-13T20:47:52.941Z,27.71
2022-10-13T20:50:23.495Z,27.13
2022-10-13T20:52:53.558Z,27.07
2022-10-13T20:55:24.005Z,26.85
2022-10-13T20:57:54.441Z,27.00
2022-10-13T21:00:27.605Z,26.75
2022-10-13T21:03:01.818Z,27.08
2022-10-13T21:05:35.013Z,27.12
2022-10-13T21:08:05.084Z,26.84
2022-10-13T21:10:37.650Z,26.06
2022-10-13T21:13:08.031Z,25.44
2022-10-13T21:15:39.545Z,24.94
2022-10-13T21:18:10.681Z,24.84
2022-10-13T21:20:43.267Z,24.80
2022-10-13T21:23:13.926Z,24.64
2022-10-13T21:25:43.939Z,24.70
2022-10-13T21:28:14.491Z,24.49
2022-10-13T21:30:47.409Z,24.35
2022-10-13T21:33:17.866Z,24.38
2022-10-13T21:35:47.931Z,24.29
2022-10-13T21:38:18.731Z,24.10
2022-10-13T21:40:53.708Z,24.08
2022-10-13T21:43:24.551Z,24.28
2022-10-13T21:45:54.554Z,24.44
2022-10-13T21:48:25.150Z,24.44
2022-10-13T21:50:55.205Z,24.53
2022-10-13T21:53:24.970Z,24.66
2022-10-13T21:55:55.453Z,24.93
2022-10-13T21:58:25.454Z,25.16
2022-10-13T22:01:01.664Z,25.14
2022-10-13T22:03:32.040Z,25.18
2022-10-13T22:06:15.920Z,24.88
2022-10-13T22:08:51.042Z,24.89
2022-10-13T22:11:25.538Z,24.94
2022-10-13T22:13:57.038Z,24.69
2022-10-13T22:16:40.436Z,24.81
2022-10-13T22:19:11.697Z,24.98
2022-10-13T22:21:47.544Z,24.72
2022-10-13T22:24:19.975Z,24.65
2022-10-13T22:26:54.047Z,24.56
2022-10-13T22:29:25.476Z,24.49
2022-10-13T22:31:59.487Z,24.66
2022-10-13T22:34:29.956Z,24.60
2022-10-13T22:37:00.474Z,24.59
2022-10-13T22:39:33.111Z,24.53
2022-10-13T22:42:11.726Z,24.28
2022-10-13T22:44:41.794Z,24.41
2022-10-13T22:47:12.397Z,24.32
2022-10-13T22:49:42.384Z,24.24
2022-10-13T22:52:13.551Z,24.03
2022-10-13T22:54:43.635Z,24.15
2022-10-13T22:57:14.111Z,24.14
2022-10-13T22:59:43.906Z,24.28
2022-10-13T23:02:14.483Z,24.28
2022-10-13T23:04:45.120Z,24.20
2022-10-13T23:07:15.776Z,24.24
2022-10-13T23:09:45.217Z,24.40
2022-10-13T23:12:15.152Z,25.07
2022-10-13T23:14:45.493Z,25.77
2022-10-13T23:17:16.537Z,25.88
2022-10-13T23:19:47.732Z,26.01
2022-10-13T23:22:17.696Z,26.66
2022-10-13T23:24:49.685Z,26.84
2022-10-13T23:27:39.567Z,25.76
2022-10-13T23:30:10.797Z,25.79
2022-10-13T23:32:40.836Z,26.85
2022-10-13T23:35:11.499Z,27.33
2022-10-13T23:37:41.537Z,27.19
2022-10-13T23:40:12.660Z,27.17
2022-10-13T23:42:42.655Z,27.62
2022-10-13T23:45:13.235Z,27.83
2022-10-13T23:47:43.342Z,27.74
2022-10-13T23:50:14.022Z,26.74
2022-10-13T23:52:44.013Z,26.66
2022-10-13T23:55:15.273Z,26.93
2022-10-13T23:57:45.375Z,26.92
